sensor_id;sensor_type;location;lat;lon;timestamp;P1;durP1;ratioP1;P2;durP2;ratioP2
40373;SDS011;26079;45.958;12.492;2022-08-14T00:00:41;5.47;;;2.63;;
40373;SDS011;26079;45.958;12.492;2022-08-14T00:03:14;6.25;;;2.83;;
40373;SDS011;26079;45.958;12.492;2022-08-14T00:05:42;6.47;;;2.90;;
40373;SDS011;26079;45.958;12.492;2022-08-14T00:08:08;4.85;;;2.72;;
40373;SDS011;26079;45.958;12.492;2022-08-14T00:10:34;10.00;;;3.25;;
40373;SDS011;26079;45.958;12.492;2022-08-14T00:12:59;4.72;;;3.15;;
40373;SDS011;26079;45.958;12.492;2022-08-14T00:15:29;5.13;;;2.40;;
40373;SDS011;26079;45.958;12.492;2022-08-14T00:17:58;4.97;;;2.35;;
40373;SDS011;26079;45.958;12.492;2022-08-14T00:20:26;6.47;;;2.90;;
40373;SDS011;26079;45.958;12.492;2022-08-14T00:22:54;4.03;;;2.45;;
40373;SDS011;26079;45.958;12.492;2022-08-14T00:25:19;4.95;;;2.83;;
40373;SDS011;26079;45.958;12.492;2022-08-14T00:27:45;2.75;;;2.55;;
40373;SDS011;26079;45.958;12.492;2022-08-14T00:30:12;4.07;;;2.50;;
40373;SDS011;26079;45.958;12.492;2022-08-14T00:32:39;3.13;;;2.55;;
40373;SDS011;26079;45.958;12.492;2022-08-14T00:35:05;3.17;;;2.92;;
40373;SDS011;26079;45.958;12.492;2022-08-14T00:37:33;3.13;;;2.80;;
40373;SDS011;26079;45.958;12.492;2022-08-14T00:39:59;4.40;;;2.63;;
40373;SDS011;26079;45.958;12.492;2022-08-14T00:42:26;2.47;;;2.28;;
40373;SDS011;26079;45.958;12.492;2022-08-14T00:44:54;3.42;;;2.90;;
40373;SDS011;26079;45.958;12.492;2022-08-14T00:47:21;4.72;;;3.20;;
40373;SDS011;26079;45.958;12.492;2022-08-14T00:49:49;2.30;;;2.10;;
40373;SDS011;26079;45.958;12.492;2022-08-14T00:52:16;2.72;;;2.53;;
40373;SDS011;26079;45.958;12.492;2022-08-14T00:54:42;5.20;;;2.40;;
40373;SDS011;26079;45.958;12.492;2022-08-14T00:57:08;7.82;;;2.95;;
40373;SDS011;26079;45.958;12.492;2022-08-14T00:59:35;2.60;;;2.40;;
40373;SDS011;26079;45.958;12.492;2022-08-14T01:02:01;4.68;;;2.72;;
40373;SDS011;26079;45.958;12.492;2022-08-14T01:04:28;6.13;;;2.67;;
40373;SDS011;26079;45.958;12.492;2022-08-14T01:06:56;3.33;;;2.60;;
40373;SDS011;26079;45.958;12.492;2022-08-14T01:09:22;2.63;;;2.42;;
40373;SDS011;26079;45.958;12.492;2022-08-14T01:11:49;2.83;;;2.42;;
40373;SDS011;26079;45.958;12.492;2022-08-14T01:14:15;4.13;;;2.72;;
40373;SDS011;26079;45.958;12.492;2022-08-14T01:16:42;5.13;;;2.88;;
40373;SDS011;26079;45.958;12.492;2022-08-14T01:19:08;4.47;;;2.80;;
40373;SDS011;26079;45.958;12.492;2022-08-14T01:21:52;2.70;;;2.50;;
40373;SDS011;26079;45.958;12.492;2022-08-14T01:24:18;3.00;;;2.70;;
40373;SDS011;26079;45.958;12.492;2022-08-14T01:26:45;2.63;;;2.42;;
40373;SDS011;26079;45.958;12.492;2022-08-14T01:29:11;3.92;;;2.65;;
40373;SDS011;26079;45.958;12.492;2022-08-14T01:31:37;4.43;;;2.70;;
40373;SDS011;26079;45.958;12.492;2022-08-14T01:34:18;3.47;;;2.90;;
40373;SDS011;26079;45.958;12.492;2022-08-14T01:36:47;3.92;;;2.75;;
40373;SDS011;26079;45.958;12.492;2022-08-14T01:39:14;5.05;;;2.35;;
40373;SDS011;26079;45.958;12.492;2022-08-14T01:41:42;3.13;;;2.28;;
40373;SDS011;26079;45.958;12.492;2022-08-14T01:44:13;3.38;;;2.25;;
40373;SDS011;26079;45.958;12.492;2022-08-14T01:46:40;2.30;;;2.05;;
40373;SDS011;26079;45.958;12.492;2022-08-14T01:49:13;4.82;;;2.80;;
40373;SDS011;26079;45.958;12.492;2022-08-14T01:51:39;4.80;;;2.83;;
40373;SDS011;26079;45.958;12.492;2022-08-14T01:54:08;4.88;;;2.17;;
40373;SDS011;26079;45.958;12.492;2022-08-14T01:56:37;3.30;;;2.60;;
40373;SDS011;26079;45.958;12.492;2022-08-14T02:01:54;3.53;;;3.03;;
40373;SDS011;26079;45.958;12.492;2022-08-14T02:04:21;4.65;;;2.88;;
40373;SDS011;26079;45.958;12.492;2022-08-14T02:06:49;3.15;;;2.40;;
40373;SDS011;26079;45.958;12.492;2022-08-14T02:09:16;3.95;;;3.15;;
40373;SDS011;26079;45.958;12.492;2022-08-14T02:11:43;2.85;;;2.65;;
40373;SDS011;26079;45.958;12.492;2022-08-14T02:14:09;3.58;;;2.60;;
40373;SDS011;26079;45.958;12.492;2022-08-14T02:16:40;9.73;;;2.60;;
40373;SDS011;26079;45.958;12.492;2022-08-14T02:19:08;3.38;;;2.40;;
40373;SDS011;26079;45.958;12.492;2022-08-14T02:21:37;6.80;;;2.50;;
40373;SDS011;26079;45.958;12.492;2022-08-14T02:24:04;3.33;;;2.70;;
40373;SDS011;26079;45.958;12.492;2022-08-14T02:26:35;3.03;;;2.58;;
40373;SDS011;26079;45.958;12.492;2022-08-14T02:29:06;2.58;;;2.38;;
40373;SDS011;26079;45.958;12.492;2022-08-14T02:31:34;3.35;;;2.30;;
40373;SDS011;26079;45.958;12.492;2022-08-14T02:34:04;3.50;;;2.95;;
40373;SDS011;26079;45.958;12.492;2022-08-14T02:36:34;3.95;;;2.53;;
40373;SDS011;26079;45.958;12.492;2022-08-14T02:39:04;4.25;;;2.67;;
40373;SDS011;26079;45.958;12.492;2022-08-14T02:41:31;7.03;;;2.65;;
40373;SDS011;26079;45.958;12.492;2022-08-14T02:43:59;5.47;;;2.65;;
40373;SDS011;26079;45.958;12.492;2022-08-14T02:46:25;3.88;;;2.28;;
40373;SDS011;26079;45.958;12.492;2022-08-14T02:48:51;2.80;;;2.60;;
40373;SDS011;26079;45.958;12.492;2022-08-14T02:51:17;3.58;;;3.00;;
40373;SDS011;26079;45.958;12.492;2022-08-14T02:53:43;6.85;;;3.15;;
40373;SDS011;26079;45.958;12.492;2022-08-14T02:56:12;3.63;;;2.88;;
40373;SDS011;26079;45.958;12.492;2022-08-14T02:58:42;3.25;;;2.95;;
40373;SDS011;26079;45.958;12.492;2022-08-14T03:01:11;2.92;;;2.35;;
40373;SDS011;26079;45.958;12.492;2022-08-14T03:03:38;2.97;;;2.67;;
40373;SDS011;26079;45.958;12.492;2022-08-14T03:06:05;4.05;;;2.75;;
40373;SDS011;26079;45.958;12.492;2022-08-14T03:08:32;3.05;;;2.75;;
40373;SDS011;26079;45.958;12.492;2022-08-14T03:10:59;5.15;;;2.80;;
40373;SDS011;26079;45.958;12.492;2022-08-14T03:13:26;3.05;;;2.70;;
40373;SDS011;26079;45.958;12.492;2022-08-14T03:15:52;2.45;;;2.25;;
40373;SDS011;26079;45.958;12.492;2022-08-14T03:18:19;3.72;;;2.85;;
40373;SDS011;26079;45.958;12.492;2022-08-14T03:20:49;6.03;;;2.97;;
40373;SDS011;26079;45.958;12.492;2022-08-14T03:23:16;2.88;;;2.50;;
40373;SDS011;26079;45.958;12.492;2022-08-14T03:25:42;4.95;;;3.35;;
40373;SDS011;26079;45.958;12.492;2022-08-14T03:28:08;3.00;;;2.78;;
40373;SDS011;26079;45.958;12.492;2022-08-14T03:30:35;3.40;;;2.58;;
40373;SDS011;26079;45.958;12.492;2022-08-14T03:33:03;3.60;;;3.03;;
40373;SDS011;26079;45.958;12.492;2022-08-14T03:35:29;7.30;;;3.00;;
40373;SDS011;26079;45.958;12.492;2022-08-14T03:38:06;9.00;;;3.25;;
40373;SDS011;26079;45.958;12.492;2022-08-14T03:40:36;4.50;;;2.58;;
40373;SDS011;26079;45.958;12.492;2022-08-14T03:43:05;6.55;;;3.33;;
40373;SDS011;26079;45.958;12.492;2022-08-14T03:45:32;2.72;;;2.42;;
40373;SDS011;26079;45.958;12.492;2022-08-14T03:48:00;4.38;;;2.72;;
40373;SDS011;26079;45.958;12.492;2022-08-14T03:50:28;2.97;;;2.47;;
40373;SDS011;26079;45.958;12.492;2022-08-14T03:52:56;5.85;;;3.00;;
40373;SDS011;26079;45.958;12.492;2022-08-14T03:55:26;3.42;;;2.90;;
40373;SDS011;26079;45.958;12.492;2022-08-14T03:57:53;3.40;;;3.00;;
40373;SDS011;26079;45.958;12.492;2022-08-14T04:00:19;3.92;;;2.97;;
40373;SDS011;26079;45.958;12.492;2022-08-14T04:02:45;7.05;;;2.80;;
40373;SDS011;26079;45.958;12.492;2022-08-14T04:05:13;2.92;;;2.65;;
40373;SDS011;26079;45.958;12.492;2022-08-14T04:07:40;3.35;;;2.85;;
40373;SDS011;26079;45.958;12.492;2022-08-14T04:10:06;3.35;;;3.05;;
40373;SDS011;26079;45.958;12.492;2022-08-14T04:12:32;4.00;;;3.38;;
40373;SDS011;26079;45.958;12.492;2022-08-14T04:14:58;3.83;;;3.53;;
40373;SDS011;26079;45.958;12.492;2022-08-14T04:17:24;3.05;;;2.65;;
40373;SDS011;26079;45.958;12.492;2022-08-14T04:19:52;4.28;;;3.40;;
40373;SDS011;26079;45.958;12.492;2022-08-14T04:22:18;3.67;;;3.08;;
40373;SDS011;26079;45.958;12.492;2022-08-14T04:24:44;5.25;;;3.33;;
40373;SDS011;26079;45.958;12.492;2022-08-14T04:27:10;4.95;;;2.50;;
40373;SDS011;26079;45.958;12.492;2022-08-14T04:29:37;2.75;;;2.55;;
40373;SDS011;26079;45.958;12.492;2022-08-14T04:32:06;8.65;;;3.67;;
40373;SDS011;26079;45.958;12.492;2022-08-14T04:34:33;11.30;;;3.38;;
40373;SDS011;26079;45.958;12.492;2022-08-14T04:37:00;4.15;;;2.75;;
40373;SDS011;26079;45.958;12.492;2022-08-14T04:39:44;3.30;;;3.00;;
40373;SDS011;26079;45.958;12.492;2022-08-14T04:42:28;3.40;;;2.90;;
40373;SDS011;26079;45.958;12.492;2022-08-14T04:45:13;3.78;;;3.15;;
40373;SDS011;26079;45.958;12.492;2022-08-14T04:47:40;4.28;;;2.85;;
40373;SDS011;26079;45.958;12.492;2022-08-14T04:50:26;3.60;;;2.90;;
40373;SDS011;26079;45.958;12.492;2022-08-14T04:52:53;4.03;;;2.70;;
40373;SDS011;26079;45.958;12.492;2022-08-14T04:55:18;4.93;;;2.80;;
40373;SDS011;26079;45.958;12.492;2022-08-14T04:57:44;3.95;;;2.63;;
40373;SDS011;26079;45.958;12.492;2022-08-14T05:00:11;3.20;;;2.92;;
40373;SDS011;26079;45.958;12.492;2022-08-14T05:02:37;3.35;;;2.50;;
40373;SDS011;26079;45.958;12.492;2022-08-14T05:05:02;3.53;;;2.42;;
40373;SDS011;26079;45.958;12.492;2022-08-14T05:07:28;4.18;;;3.70;;
40373;SDS011;26079;45.958;12.492;2022-08-14T05:09:55;2.60;;;2.40;;
40373;SDS011;26079;45.958;12.492;2022-08-14T05:12:20;4.47;;;2.63;;
40373;SDS011;26079;45.958;12.492;2022-08-14T05:14:46;2.92;;;2.70;;
40373;SDS011;26079;45.958;12.492;2022-08-14T05:17:12;5.22;;;2.20;;
40373;SDS011;26079;45.958;12.492;2022-08-14T05:19:38;8.43;;;2.72;;
40373;SDS011;26079;45.958;12.492;2022-08-14T05:22:04;3.30;;;2.92;;
40373;SDS011;26079;45.958;12.492;2022-08-14T05:24:30;5.28;;;2.45;;
40373;SDS011;26079;45.958;12.492;2022-08-14T05:26:55;3.78;;;2.72;;
40373;SDS011;26079;45.958;12.492;2022-08-14T05:29:21;4.03;;;3.05;;
40373;SDS011;26079;45.958;12.492;2022-08-14T05:31:47;3.25;;;2.80;;
40373;SDS011;26079;45.958;12.492;2022-08-14T05:34:12;2.60;;;2.40;;
40373;SDS011;26079;45.958;12.492;2022-08-14T05:36:38;3.45;;;2.88;;
40373;SDS011;26079;45.958;12.492;2022-08-14T05:39:04;2.55;;;2.35;;
40373;SDS011;26079;45.958;12.492;2022-08-14T05:41:30;3.72;;;2.38;;
40373;SDS011;26079;45.958;12.492;2022-08-14T05:43:57;3.95;;;1.95;;
40373;SDS011;26079;45.958;12.492;2022-08-14T05:46:23;2.97;;;2.17;;
40373;SDS011;26079;45.958;12.492;2022-08-14T05:48:49;5.25;;;2.35;;
40373;SDS011;26079;45.958;12.492;2022-08-14T05:51:17;2.97;;;2.25;;
40373;SDS011;26079;45.958;12.492;2022-08-14T05:53:43;2.35;;;2.03;;
40373;SDS011;26079;45.958;12.492;2022-08-14T05:56:09;5.65;;;2.20;;
40373;SDS011;26079;45.958;12.492;2022-08-14T05:58:35;4.32;;;2.00;;
40373;SDS011;26079;45.958;12.492;2022-08-14T06:01:01;1.80;;;1.67;;
40373;SDS011;26079;45.958;12.492;2022-08-14T06:03:27;2.03;;;1.83;;
40373;SDS011;26079;45.958;12.492;2022-08-14T06:05:53;2.45;;;2.05;;
40373;SDS011;26079;45.958;12.492;2022-08-14T06:08:27;3.15;;;2.20;;
40373;SDS011;26079;45.958;12.492;2022-08-14T06:10:55;2.35;;;2.15;;
40373;SDS011;26079;45.958;12.492;2022-08-14T06:13:30;2.78;;;2.22;;
40373;SDS011;26079;45.958;12.492;2022-08-14T06:16:01;4.95;;;2.10;;
40373;SDS011;26079;45.958;12.492;2022-08-14T06:18:27;2.88;;;2.33;;
40373;SDS011;26079;45.958;12.492;2022-08-14T06:20:52;4.47;;;2.47;;
40373;SDS011;26079;45.958;12.492;2022-08-14T06:23:18;5.68;;;1.92;;
40373;SDS011;26079;45.958;12.492;2022-08-14T06:25:44;4.25;;;2.08;;
40373;SDS011;26079;45.958;12.492;2022-08-14T06:28:17;2.00;;;1.80;;
40373;SDS011;26079;45.958;12.492;2022-08-14T06:30:44;7.30;;;2.08;;
40373;SDS011;26079;45.958;12.492;2022-08-14T06:33:10;2.10;;;1.95;;
40373;SDS011;26079;45.958;12.492;2022-08-14T06:35:37;2.50;;;2.30;;
40373;SDS011;26079;45.958;12.492;2022-08-14T06:38:03;3.42;;;2.05;;
40373;SDS011;26079;45.958;12.492;2022-08-14T06:40:30;4.07;;;1.98;;
40373;SDS011;26079;45.958;12.492;2022-08-14T06:43:02;2.30;;;2.10;;
40373;SDS011;26079;45.958;12.492;2022-08-14T06:45:33;2.85;;;1.95;;
40373;SDS011;26079;45.958;12.492;2022-08-14T06:48:00;2.50;;;2.30;;
40373;SDS011;26079;45.958;12.492;2022-08-14T06:50:27;3.85;;;2.08;;
40373;SDS011;26079;45.958;12.492;2022-08-14T06:52:54;5.85;;;2.55;;
40373;SDS011;26079;45.958;12.492;2022-08-14T06:55:20;2.10;;;2.00;;
40373;SDS011;26079;45.958;12.492;2022-08-14T06:57:48;6.57;;;2.58;;
40373;SDS011;26079;45.958;12.492;2022-08-14T07:00:16;4.18;;;2.70;;
40373;SDS011;26079;45.958;12.492;2022-08-14T07:02:43;4.20;;;2.67;;
40373;SDS011;26079;45.958;12.492;2022-08-14T07:05:28;2.15;;;1.95;;
40373;SDS011;26079;45.958;12.492;2022-08-14T07:10:51;3.17;;;1.90;;
40373;SDS011;26079;45.958;12.492;2022-08-14T07:13:18;2.53;;;2.33;;
40373;SDS011;26079;45.958;12.492;2022-08-14T07:15:45;13.55;;;2.58;;
40373;SDS011;26079;45.958;12.492;2022-08-14T07:18:14;3.97;;;2.90;;
40373;SDS011;26079;45.958;12.492;2022-08-14T07:20:47;3.38;;;2.17;;
40373;SDS011;26079;45.958;12.492;2022-08-14T07:23:14;4.95;;;2.65;;
40373;SDS011;26079;45.958;12.492;2022-08-14T07:25:41;2.47;;;2.28;;
40373;SDS011;26079;45.958;12.492;2022-08-14T07:28:09;3.00;;;2.25;;
40373;SDS011;26079;45.958;12.492;2022-08-14T07:30:42;4.85;;;2.15;;
40373;SDS011;26079;45.958;12.492;2022-08-14T07:33:08;3.38;;;2.50;;
40373;SDS011;26079;45.958;12.492;2022-08-14T07:35:35;2.45;;;2.25;;
40373;SDS011;26079;45.958;12.492;2022-08-14T07:38:02;3.33;;;2.30;;
40373;SDS011;26079;45.958;12.492;2022-08-14T07:40:28;1.90;;;1.80;;
40373;SDS011;26079;45.958;12.492;2022-08-14T07:42:54;2.35;;;2.15;;
40373;SDS011;26079;45.958;12.492;2022-08-14T07:45:20;2.00;;;1.80;;
40373;SDS011;26079;45.958;12.492;2022-08-14T07:47:46;6.68;;;1.92;;
40373;SDS011;26079;45.958;12.492;2022-08-14T07:50:13;4.35;;;2.17;;
40373;SDS011;26079;45.958;12.492;2022-08-14T07:52:41;2.55;;;1.83;;
40373;SDS011;26079;45.958;12.492;2022-08-14T07:55:08;2.88;;;2.53;;
40373;SDS011;26079;45.958;12.492;2022-08-14T07:57:36;2.45;;;2.20;;
40373;SDS011;26079;45.958;12.492;2022-08-14T08:00:06;1.70;;;1.60;;
40373;SDS011;26079;45.958;12.492;2022-08-14T08:02:38;2.92;;;2.17;;
40373;SDS011;26079;45.958;12.492;2022-08-14T08:05:05;4.85;;;2.40;;
40373;SDS011;26079;45.958;12.492;2022-08-14T08:07:32;2.00;;;1.80;;
40373;SDS011;26079;45.958;12.492;2022-08-14T08:10:05;3.05;;;1.80;;
40373;SDS011;26079;45.958;12.492;2022-08-14T08:12:51;9.75;;;2.30;;
40373;SDS011;26079;45.958;12.492;2022-08-14T08:15:19;2.25;;;2.05;;
40373;SDS011;26079;45.958;12.492;2022-08-14T08:17:47;2.38;;;2.17;;
40373;SDS011;26079;45.958;12.492;2022-08-14T08:20:20;2.10;;;1.90;;
40373;SDS011;26079;45.958;12.492;2022-08-14T08:22:49;6.85;;;2.40;;
40373;SDS011;26079;45.958;12.492;2022-08-14T08:25:15;2.30;;;2.13;;
40373;SDS011;26079;45.958;12.492;2022-08-14T08:27:42;3.33;;;1.75;;
40373;SDS011;26079;45.958;12.492;2022-08-14T08:30:32;3.65;;;1.80;;
40373;SDS011;26079;45.958;12.492;2022-08-14T08:32:59;3.17;;;2.17;;
40373;SDS011;26079;45.958;12.492;2022-08-14T08:35:27;3.80;;;1.90;;
40373;SDS011;26079;45.958;12.492;2022-08-14T08:38:06;2.63;;;2.15;;
40373;SDS011;26079;45.958;12.492;2022-08-14T08:40:43;7.18;;;2.10;;
40373;SDS011;26079;45.958;12.492;2022-08-14T08:43:33;5.85;;;2.55;;
40373;SDS011;26079;45.958;12.492;2022-08-14T08:45:58;2.00;;;1.80;;
40373;SDS011;26079;45.958;12.492;2022-08-14T08:48:47;3.28;;;2.38;;
40373;SDS011;26079;45.958;12.492;2022-08-14T08:51:26;2.60;;;2.10;;
40373;SDS011;26079;45.958;12.492;2022-08-14T08:54:00;7.70;;;2.22;;
40373;SDS011;26079;45.958;12.492;2022-08-14T08:59:02;2.22;;;1.80;;
40373;SDS011;26079;45.958;12.492;2022-08-14T09:01:45;1.70;;;1.60;;
40373;SDS011;26079;45.958;12.492;2022-08-14T09:04:22;3.15;;;1.70;;
40373;SDS011;26079;45.958;12.492;2022-08-14T09:06:52;2.78;;;1.92;;
40373;SDS011;26079;45.958;12.492;2022-08-14T09:11:44;1.30;;;1.20;;
40373;SDS011;26079;45.958;12.492;2022-08-14T09:14:10;2.45;;;1.58;;
40373;SDS011;26079;45.958;12.492;2022-08-14T09:16:36;8.80;;;2.10;;
40373;SDS011;26079;45.958;12.492;2022-08-14T09:19:02;3.70;;;2.17;;
40373;SDS011;26079;45.958;12.492;2022-08-14T09:21:28;6.60;;;2.17;;
40373;SDS011;26079;45.958;12.492;2022-08-14T09:23:54;2.92;;;1.95;;
40373;SDS011;26079;45.958;12.492;2022-08-14T09:26:20;1.90;;;1.67;;
40373;SDS011;26079;45.958;12.492;2022-08-14T09:28:46;3.97;;;2.22;;
40373;SDS011;26079;45.958;12.492;2022-08-14T09:31:12;1.75;;;1.63;;
40373;SDS011;26079;45.958;12.492;2022-08-14T09:36:28;1.90;;;1.70;;
40373;SDS011;26079;45.958;12.492;2022-08-14T09:42:27;3.83;;;1.75;;
40373;SDS011;26079;45.958;12.492;2022-08-14T09:45:18;2.03;;;1.83;;
40373;SDS011;26079;45.958;12.492;2022-08-14T09:47:51;7.43;;;2.55;;
40373;SDS011;26079;45.958;12.492;2022-08-14T09:50:21;3.20;;;2.42;;
40373;SDS011;26079;45.958;12.492;2022-08-14T09:52:53;2.20;;;1.90;;
40373;SDS011;26079;45.958;12.492;2022-08-14T09:55:22;2.10;;;1.92;;
40373;SDS011;26079;45.958;12.492;2022-08-14T09:57:49;2.33;;;2.03;;
40373;SDS011;26079;45.958;12.492;2022-08-14T10:00:17;2.13;;;1.85;;
40373;SDS011;26079;45.958;12.492;2022-08-14T10:02:56;1.92;;;1.67;;
40373;SDS011;26079;45.958;12.492;2022-08-14T10:05:36;3.10;;;2.05;;
40373;SDS011;26079;45.958;12.492;2022-08-14T10:08:03;2.75;;;2.25;;
40373;SDS011;26079;45.958;12.492;2022-08-14T10:10:36;4.57;;;2.10;;
40373;SDS011;26079;45.958;12.492;2022-08-14T10:13:04;4.72;;;2.28;;
40373;SDS011;26079;45.958;12.492;2022-08-14T10:15:32;3.38;;;1.92;;
40373;SDS011;26079;45.958;12.492;2022-08-14T10:20:39;8.73;;;2.30;;
40373;SDS011;26079;45.958;12.492;2022-08-14T10:23:15;3.33;;;2.28;;
40373;SDS011;26079;45.958;12.492;2022-08-14T10:25:46;11.70;;;1.80;;
40373;SDS011;26079;45.958;12.492;2022-08-14T10:28:35;2.83;;;2.05;;
40373;SDS011;26079;45.958;12.492;2022-08-14T10:31:03;2.97;;;1.60;;
40373;SDS011;26079;45.958;12.492;2022-08-14T10:34:03;3.40;;;1.90;;
40373;SDS011;26079;45.958;12.492;2022-08-14T10:36:35;2.72;;;1.88;;
40373;SDS011;26079;45.958;12.492;2022-08-14T10:39:07;2.63;;;2.35;;
40373;SDS011;26079;45.958;12.492;2022-08-14T10:41:40;2.05;;;1.80;;
40373;SDS011;26079;45.958;12.492;2022-08-14T10:44:09;3.60;;;2.45;;
40373;SDS011;26079;45.958;12.492;2022-08-14T10:46:40;2.85;;;1.92;;
40373;SDS011;26079;45.958;12.492;2022-08-14T10:49:16;2.15;;;1.95;;
40373;SDS011;26079;45.958;12.492;2022-08-14T10:51:53;2.35;;;1.85;;
40373;SDS011;26079;45.958;12.492;2022-08-14T10:54:31;2.03;;;1.83;;
40373;SDS011;26079;45.958;12.492;2022-08-14T10:59:51;2.08;;;1.88;;
40373;SDS011;26079;45.958;12.492;2022-08-14T11:05:06;2.28;;;1.60;;
40373;SDS011;26079;45.958;12.492;2022-08-14T11:07:38;3.08;;;2.05;;
40373;SDS011;26079;45.958;12.492;2022-08-14T11:10:07;2.90;;;2.15;;
40373;SDS011;26079;45.958;12.492;2022-08-14T11:12:40;4.10;;;1.90;;
40373;SDS011;26079;45.958;12.492;2022-08-14T11:15:17;3.50;;;2.03;;
40373;SDS011;26079;45.958;12.492;2022-08-14T11:17:43;1.88;;;1.55;;
40373;SDS011;26079;45.958;12.492;2022-08-14T11:20:14;3.25;;;1.88;;
40373;SDS011;26079;45.958;12.492;2022-08-14T11:22:41;6.35;;;2.17;;
40373;SDS011;26079;45.958;12.492;2022-08-14T11:25:08;3.20;;;1.65;;
40373;SDS011;26079;45.958;12.492;2022-08-14T11:27:37;2.03;;;1.60;;
40373;SDS011;26079;45.958;12.492;2022-08-14T11:30:05;8.98;;;1.80;;
40373;SDS011;26079;45.958;12.492;2022-08-14T11:32:33;2.72;;;1.70;;
40373;SDS011;26079;45.958;12.492;2022-08-14T11:35:00;2.30;;;1.80;;
40373;SDS011;26079;45.958;12.492;2022-08-14T11:37:29;5.68;;;2.03;;
40373;SDS011;26079;45.958;12.492;2022-08-14T11:40:01;2.92;;;1.98;;
40373;SDS011;26079;45.958;12.492;2022-08-14T11:42:27;3.40;;;1.65;;
40373;SDS011;26079;45.958;12.492;2022-08-14T11:44:58;4.35;;;2.55;;
40373;SDS011;26079;45.958;12.492;2022-08-14T11:47:30;4.35;;;2.22;;
40373;SDS011;26079;45.958;12.492;2022-08-14T11:49:56;2.05;;;1.90;;
40373;SDS011;26079;45.958;12.492;2022-08-14T11:52:23;3.88;;;1.73;;
40373;SDS011;26079;45.958;12.492;2022-08-14T11:54:58;3.17;;;2.08;;
40373;SDS011;26079;45.958;12.492;2022-08-14T11:57:24;2.40;;;2.08;;
40373;SDS011;26079;45.958;12.492;2022-08-14T12:00:00;2.08;;;1.55;;
40373;SDS011;26079;45.958;12.492;2022-08-14T12:02:32;3.87;;;1.90;;
40373;SDS011;26079;45.958;12.492;2022-08-14T12:04:58;1.90;;;1.52;;
40373;SDS011;26079;45.958;12.492;2022-08-14T12:07:24;4.20;;;1.83;;
40373;SDS011;26079;45.958;12.492;2022-08-14T12:09:54;4.90;;;1.45;;
40373;SDS011;26079;45.958;12.492;2022-08-14T12:12:25;1.98;;;1.45;;
40373;SDS011;26079;45.958;12.492;2022-08-14T12:14:56;4.28;;;1.77;;
40373;SDS011;26079;45.958;12.492;2022-08-14T12:17:27;2.38;;;1.38;;
40373;SDS011;26079;45.958;12.492;2022-08-14T12:19:58;1.73;;;1.63;;
40373;SDS011;26079;45.958;12.492;2022-08-14T12:25:08;4.53;;;1.60;;
40373;SDS011;26079;45.958;12.492;2022-08-14T12:27:45;3.08;;;1.70;;
40373;SDS011;26079;45.958;12.492;2022-08-14T12:33:20;2.67;;;1.95;;
40373;SDS011;26079;45.958;12.492;2022-08-14T12:35:50;1.63;;;1.52;;
40373;SDS011;26079;45.958;12.492;2022-08-14T12:38:17;2.42;;;1.83;;
40373;SDS011;26079;45.958;12.492;2022-08-14T12:40:50;1.70;;;1.60;;
40373;SDS011;26079;45.958;12.492;2022-08-14T12:43:17;2.13;;;1.92;;
40373;SDS011;26079;45.958;12.492;2022-08-14T12:45:45;2.13;;;1.90;;
40373;SDS011;26079;45.958;12.492;2022-08-14T12:48:16;2.00;;;1.63;;
40373;SDS011;26079;45.958;12.492;2022-08-14T12:50:46;1.85;;;1.75;;
40373;SDS011;26079;45.958;12.492;2022-08-14T12:53:16;6.05;;;1.50;;
40373;SDS011;26079;45.958;12.492;2022-08-14T12:55:45;2.00;;;1.42;;
40373;SDS011;26079;45.958;12.492;2022-08-14T12:58:27;1.73;;;1.50;;
40373;SDS011;26079;45.958;12.492;2022-08-14T13:00:53;6.47;;;1.92;;
40373;SDS011;26079;45.958;12.492;2022-08-14T13:03:24;2.08;;;1.85;;
40373;SDS011;26079;45.958;12.492;2022-08-14T13:05:51;1.63;;;1.52;;
40373;SDS011;26079;45.958;12.492;2022-08-14T13:08:17;3.47;;;1.65;;
40373;SDS011;26079;45.958;12.492;2022-08-14T13:10:44;4.57;;;1.73;;
40373;SDS011;26079;45.958;12.492;2022-08-14T13:13:11;3.72;;;1.77;;
40373;SDS011;26079;45.958;12.492;2022-08-14T13:15:44;1.83;;;1.48;;
40373;SDS011;26079;45.958;12.492;2022-08-14T13:18:14;2.70;;;1.42;;
40373;SDS011;26079;45.958;12.492;2022-08-14T13:20:41;2.05;;;1.38;;
40373;SDS011;26079;45.958;12.492;2022-08-14T13:23:09;2.13;;;1.40;;
40373;SDS011;26079;45.958;12.492;2022-08-14T13:25:38;2.72;;;1.73;;
40373;SDS011;26079;45.958;12.492;2022-08-14T13:28:07;1.65;;;1.40;;
40373;SDS011;26079;45.958;12.492;2022-08-14T13:30:35;1.20;;;1.20;;
40373;SDS011;26079;45.958;12.492;2022-08-14T13:33:04;2.42;;;1.63;;
40373;SDS011;26079;45.958;12.492;2022-08-14T13:35:32;2.63;;;1.48;;
40373;SDS011;26079;45.958;12.492;2022-08-14T13:37:57;1.13;;;1.02;;
40373;SDS011;26079;45.958;12.492;2022-08-14T13:40:23;10.30;;;1.80;;
40373;SDS011;26079;45.958;12.492;2022-08-14T13:42:49;2.22;;;1.40;;
40373;SDS011;26079;45.958;12.492;2022-08-14T13:45:16;2.85;;;1.35;;
40373;SDS011;26079;45.958;12.492;2022-08-14T13:47:43;3.80;;;1.50;;
40373;SDS011;26079;45.958;12.492;2022-08-14T13:50:10;1.25;;;1.15;;
40373;SDS011;26079;45.958;12.492;2022-08-14T13:52:40;2.55;;;1.65;;
40373;SDS011;26079;45.958;12.492;2022-08-14T13:55:09;2.13;;;1.42;;
40373;SDS011;26079;45.958;12.492;2022-08-14T13:57:38;1.75;;;1.23;;
40373;SDS011;26079;45.958;12.492;2022-08-14T14:00:07;7.38;;;1.30;;
40373;SDS011;26079;45.958;12.492;2022-08-14T14:02:37;2.15;;;1.42;;
40373;SDS011;26079;45.958;12.492;2022-08-14T14:05:05;1.38;;;1.27;;
40373;SDS011;26079;45.958;12.492;2022-08-14T14:07:32;1.48;;;1.33;;
40373;SDS011;26079;45.958;12.492;2022-08-14T14:10:00;3.20;;;1.50;;
40373;SDS011;26079;45.958;12.492;2022-08-14T14:12:28;2.95;;;1.48;;
40373;SDS011;26079;45.958;12.492;2022-08-14T14:14:54;1.73;;;1.33;;
40373;SDS011;26079;45.958;12.492;2022-08-14T14:17:20;4.22;;;1.65;;
40373;SDS011;26079;45.958;12.492;2022-08-14T14:19:49;2.75;;;1.50;;
40373;SDS011;26079;45.958;12.492;2022-08-14T14:22:16;5.35;;;1.33;;
40373;SDS011;26079;45.958;12.492;2022-08-14T14:24:42;1.58;;;1.45;;
40373;SDS011;26079;45.958;12.492;2022-08-14T14:27:11;1.40;;;1.30;;
40373;SDS011;26079;45.958;12.492;2022-08-14T14:29:43;1.25;;;1.13;;
40373;SDS011;26079;45.958;12.492;2022-08-14T14:32:14;2.08;;;1.02;;
40373;SDS011;26079;45.958;12.492;2022-08-14T14:34:41;2.35;;;1.27;;
40373;SDS011;26079;45.958;12.492;2022-08-14T14:37:09;3.78;;;1.48;;
40373;SDS011;26079;45.958;12.492;2022-08-14T14:39:36;11.38;;;2.00;;
40373;SDS011;26079;45.958;12.492;2022-08-14T14:42:02;2.63;;;1.38;;
40373;SDS011;26079;45.958;12.492;2022-08-14T14:44:34;2.72;;;1.20;;
40373;SDS011;26079;45.958;12.492;2022-08-14T14:47:08;1.27;;;1.17;;
40373;SDS011;26079;45.958;12.492;2022-08-14T14:49:36;1.75;;;1.27;;
40373;SDS011;26079;45.958;12.492;2022-08-14T14:52:03;1.85;;;1.17;;
40373;SDS011;26079;45.958;12.492;2022-08-14T14:54:30;1.85;;;1.55;;
40373;SDS011;26079;45.958;12.492;2022-08-14T14:57:03;1.52;;;1.33;;
40373;SDS011;26079;45.958;12.492;2022-08-14T14:59:32;2.55;;;0.85;;
40373;SDS011;26079;45.958;12.492;2022-08-14T15:02:01;2.63;;;1.17;;
40373;SDS011;26079;45.958;12.492;2022-08-14T15:04:30;0.95;;;0.95;;
40373;SDS011;26079;45.958;12.492;2022-08-14T15:07:00;1.30;;;1.20;;
40373;SDS011;26079;45.958;12.492;2022-08-14T15:09:27;2.60;;;1.55;;
40373;SDS011;26079;45.958;12.492;2022-08-14T15:11:53;1.92;;;1.17;;
40373;SDS011;26079;45.958;12.492;2022-08-14T15:14:21;2.55;;;1.10;;